createdAt,value
2017-08-24T00:04:00.091Z,15.80
2017-08-24T00:08:47.056Z,13.80
2017-08-24T00:13:33.763Z,17.40
2017-08-24T00:18:20.408Z,17.03
2017-08-24T00:23:07.135Z,17.53
2017-08-24T00:27:53.761Z,14.50
2017-08-24T00:32:40.671Z,15.70
2017-08-24T00:37:27.274Z,15.90
2017-08-24T00:42:14.228Z,15.60
2017-08-24T00:47:00.923Z,15.87
2017-08-24T00:51:47.568Z,18.60
2017-08-24T00:56:34.189Z,13.90
2017-08-24T01:01:20.910Z,12.20
2017-08-24T01:06:07.633Z,18.77
2017-08-24T01:10:54.521Z,13.67
2017-08-24T01:15:41.128Z,14.90
2017-08-24T01:20:28.005Z,15.30
2017-08-24T01:25:14.713Z,15.43
2017-08-24T01:30:01.451Z,19.70
2017-08-24T01:34:48.139Z,17.03
2017-08-24T01:39:34.800Z,12.90
2017-08-24T01:44:21.473Z,14.00
2017-08-24T01:49:08.108Z,13.10
2017-08-24T01:53:55.068Z,13.50
2017-08-24T01:58:41.684Z,13.47
2017-08-24T02:03:28.342Z,16.07
2017-08-24T02:08:15.018Z,18.77
2017-08-24T02:13:01.645Z,17.97
2017-08-24T02:17:48.323Z,21.33
2017-08-24T02:22:35.365Z,22.43
2017-08-24T02:27:22.012Z,17.80
2017-08-24T02:32:08.729Z,24.60
2017-08-24T02:36:55.365Z,29.47
2017-08-24T02:41:42.082Z,27.40
2017-08-24T02:46:29.024Z,22.40
2017-08-24T02:51:15.831Z,23.57
2017-08-24T02:56:02.711Z,22.03
2017-08-24T03:00:49.630Z,19.77
2017-08-24T03:05:37.273Z,19.10
2017-08-24T03:10:23.932Z,20.67
2017-08-24T03:15:10.978Z,20.83
2017-08-24T03:19:57.611Z,22.53
2017-08-24T03:24:44.261Z,25.53
2017-08-24T03:29:30.906Z,22.90
2017-08-24T03:34:17.541Z,24.93
2017-08-24T03:39:04.293Z,24.97
2017-08-24T03:43:51.288Z,25.57
2017-08-24T03:48:37.957Z,27.20
2017-08-24T03:53:24.655Z,26.77
2017-08-24T03:58:11.449Z,25.67
2017-08-24T04:02:58.236Z,25.30
2017-08-24T04:07:45.535Z,29.30
2017-08-24T04:12:32.478Z,29.93
2017-08-24T04:17:19.144Z,29.57
2017-08-24T04:22:05.856Z,28.07
2017-08-24T04:26:52.860Z,26.00
2017-08-24T04:31:39.761Z,25.80
2017-08-24T04:36:26.485Z,20.30
2017-08-24T04:41:13.476Z,29.43
2017-08-24T04:46:00.147Z,29.50
2017-08-24T04:50:46.777Z,25.40
2017-08-24T04:55:33.779Z,31.57
2017-08-24T05:00:20.469Z,27.20
2017-08-24T05:05:07.449Z,25.17
2017-08-24T05:09:54.196Z,29.33
2017-08-24T05:14:40.985Z,24.47
2017-08-24T05:19:28.123Z,39.93
2017-08-24T05:24:14.830Z,31.23
2017-08-24T05:29:01.552Z,24.93
2017-08-24T05:33:48.676Z,24.80
2017-08-24T05:38:35.276Z,28.40
2017-08-24T05:43:21.937Z,23.73
2017-08-24T05:48:08.583Z,22.33
2017-08-24T05:52:55.222Z,24.50
2017-08-24T05:57:41.863Z,22.37
2017-08-24T06:02:35.993Z,23.03
2017-08-24T06:07:22.667Z,29.67
2017-08-24T06:12:09.313Z,31.10
2017-08-24T06:16:55.945Z,23.90
2017-08-24T06:21:42.667Z,33.10
2017-08-24T06:26:29.614Z,24.33
2017-08-24T06:31:16.225Z,19.73
2017-08-24T06:36:02.841Z,18.13
2017-08-24T06:40:49.481Z,15.53
2017-08-24T06:45:36.106Z,18.10
2017-08-24T06:50:23.118Z,23.50
2017-08-24T06:55:09.930Z,25.67
2017-08-24T06:59:56.592Z,18.87
2017-08-24T07:04:43.433Z,21.33
2017-08-24T07:09:30.370Z,26.73
2017-08-24T07:14:16.988Z,21.50
2017-08-24T07:19:04.151Z,22.40
2017-08-24T07:23:50.774Z,18.13
2017-08-24T07:28:37.902Z,20.30
2017-08-24T07:33:24.624Z,24.47
2017-08-24T07:38:11.275Z,20.20
2017-08-24T07:42:57.910Z,18.00
2017-08-24T07:47:44.808Z,25.90
2017-08-24T07:52:31.406Z,17.73
2017-08-24T07:57:18.327Z,22.77
2017-08-24T08:02:04.968Z,18.80
2017-08-24T08:06:51.617Z,28.63
2017-08-24T08:11:38.287Z,14.90
2017-08-24T08:16:25.345Z,18.33
2017-08-24T08:21:11.969Z,23.63
2017-08-24T08:25:58.755Z,15.43
2017-08-24T08:30:45.649Z,16.30
2017-08-24T08:35:32.292Z,9.60
2017-08-24T08:40:19.081Z,20.20
2017-08-24T08:45:06.092Z,11.57
2017-08-24T08:49:52.704Z,15.30
2017-08-24T08:54:39.345Z,8.77
2017-08-24T08:59:25.975Z,10.30
2017-08-24T09:04:12.655Z,11.43
2017-08-24T09:08:59.540Z,10.90
2017-08-24T09:13:46.177Z,11.30
2017-08-24T09:18:32.821Z,8.47
2017-08-24T09:23:19.765Z,8.70
2017-08-24T09:28:06.470Z,11.40
2017-08-24T09:32:53.092Z,9.00
2017-08-24T09:37:46.792Z,9.63
2017-08-24T09:42:33.428Z,8.40
2017-08-24T09:47:20.732Z,6.37
2017-08-24T09:52:07.344Z,7.33
2017-08-24T09:56:54.407Z,6.03
2017-08-24T10:01:41.088Z,8.10
2017-08-24T10:06:27.719Z,11.60
2017-08-24T10:11:14.346Z,13.17
2017-08-24T10:16:01.065Z,8.10
2017-08-24T10:20:48.095Z,6.60
2017-08-24T10:25:34.720Z,6.83
2017-08-24T10:30:21.367Z,5.17
2017-08-24T10:35:08.404Z,5.10
2017-08-24T10:39:55.050Z,11.17
2017-08-24T10:44:41.687Z,8.10
2017-08-24T10:49:28.345Z,6.50
2017-08-24T10:54:15.246Z,5.93
2017-08-24T10:59:01.874Z,7.30
2017-08-24T11:03:48.512Z,6.03
2017-08-24T11:08:35.143Z,6.37
2017-08-24T11:13:22.146Z,6.80
2017-08-24T11:18:08.795Z,5.77
2017-08-24T11:22:55.430Z,10.07
2017-08-24T11:27:42.093Z,6.77
2017-08-24T11:32:29.046Z,8.90
2017-08-24T11:37:15.690Z,7.53
2017-08-24T11:42:02.355Z,13.93
2017-08-24T11:46:49.026Z,11.10
2017-08-24T11:51:35.630Z,13.53
2017-08-24T11:56:22.567Z,8.70
2017-08-24T12:01:09.197Z,5.47
2017-08-24T12:05:55.840Z,9.77
2017-08-24T12:10:42.503Z,9.77
2017-08-24T12:15:29.154Z,6.97
2017-08-24T12:20:15.801Z,8.00
2017-08-24T12:25:02.510Z,6.87
2017-08-24T12:29:49.936Z,7.90
2017-08-24T12:34:36.602Z,8.80
2017-08-24T12:39:23.670Z,8.70
2017-08-24T12:44:10.341Z,8.07
2017-08-24T12:48:57.005Z,9.83
2017-08-24T12:53:43.650Z,16.50
2017-08-24T12:58:30.318Z,7.40
2017-08-24T13:03:16.990Z,10.27
2017-08-24T13:08:04.048Z,8.00
2017-08-24T13:12:50.671Z,9.23
2017-08-24T13:17:37.320Z,6.23
2017-08-24T13:22:23.966Z,7.93
2017-08-24T13:27:10.884Z,9.30
2017-08-24T13:31:57.535Z,9.10
2017-08-24T13:36:44.158Z,12.43
2017-08-24T13:41:30.786Z,8.70
2017-08-24T13:46:17.444Z,13.17
2017-08-24T13:51:04.063Z,16.20
2017-08-24T13:55:50.698Z,10.53
2017-08-24T14:00:37.409Z,10.10
2017-08-24T14:05:24.081Z,16.43
2017-08-24T14:10:10.721Z,11.03
2017-08-24T14:14:57.706Z,9.90
2017-08-24T14:19:44.734Z,9.97
2017-08-24T14:24:31.390Z,8.67
2017-08-24T14:29:18.109Z,10.97
2017-08-24T14:34:04.851Z,11.30
2017-08-24T14:38:51.925Z,14.50
2017-08-24T14:43:38.563Z,10.57
2017-08-24T14:48:25.240Z,8.97
2017-08-24T14:53:11.902Z,7.77
2017-08-24T14:57:58.798Z,7.30
2017-08-24T15:02:45.422Z,8.70
2017-08-24T15:07:32.114Z,7.67
2017-08-24T15:12:19.085Z,17.93
2017-08-24T15:17:05.697Z,9.50
2017-08-24T15:21:52.360Z,10.93
2017-08-24T15:26:38.993Z,9.47
2017-08-24T15:31:25.970Z,7.40
2017-08-24T15:36:12.587Z,8.30
2017-08-24T15:40:59.207Z,7.70
2017-08-24T15:45:45.939Z,8.53
2017-08-24T15:50:32.631Z,10.50
2017-08-24T15:55:19.582Z,10.20
2017-08-24T16:00:06.293Z,9.73
2017-08-24T16:04:53.037Z,10.63
2017-08-24T16:09:39.700Z,10.27
2017-08-24T16:14:26.427Z,9.77
2017-08-24T16:19:13.522Z,10.00
2017-08-24T16:24:00.342Z,14.53
2017-08-24T16:28:47.018Z,11.27
2017-08-24T16:33:33.643Z,10.80
2017-08-24T16:38:21.418Z,7.27
2017-08-24T16:43:08.082Z,11.20
2017-08-24T16:47:54.825Z,9.20
2017-08-24T16:52:41.629Z,10.70
2017-08-24T16:57:28.358Z,8.80
2017-08-24T17:02:15.055Z,8.50
2017-08-24T17:07:02.773Z,8.03
2017-08-24T17:11:49.467Z,8.97
2017-08-24T17:16:36.153Z,8.87
2017-08-24T17:21:22.859Z,9.17
2017-08-24T17:26:09.633Z,12.20
2017-08-24T17:30:56.367Z,12.13
2017-08-24T17:35:43.004Z,10.80
2017-08-24T17:40:29.715Z,7.60
2017-08-24T17:45:16.673Z,9.33
2017-08-24T17:50:03.758Z,15.40
2017-08-24T17:54:50.464Z,9.13
2017-08-24T17:59:37.135Z,10.73
2017-08-24T18:04:23.777Z,9.40
2017-08-24T18:09:11.224Z,13.33
2017-08-24T18:13:58.927Z,10.50
2017-08-24T18:18:45.581Z,15.60
2017-08-24T18:23:32.215Z,19.10
2017-08-24T18:28:18.885Z,26.70
2017-08-24T18:33:05.524Z,13.00
2017-08-24T18:37:52.181Z,10.73
2017-08-24T18:42:38.821Z,11.73
2017-08-24T18:47:25.884Z,17.40
2017-08-24T18:52:12.569Z,13.37
2017-08-24T18:56:59.265Z,13.50
2017-08-24T19:01:45.972Z,11.00
2017-08-24T19:06:32.943Z,12.60
2017-08-24T19:11:19.599Z,16.40
2017-08-24T19:16:06.335Z,13.13
2017-08-24T19:20:53.086Z,14.10
2017-08-24T19:25:39.849Z,17.53
2017-08-24T19:30:26.919Z,15.27
2017-08-24T19:35:13.615Z,20.90
2017-08-24T19:40:00.351Z,15.93
2017-08-24T19:44:47.048Z,18.63
2017-08-24T19:49:33.759Z,16.30
2017-08-24T19:54:20.487Z,11.20
2017-08-24T19:59:07.202Z,6.10
2017-08-24T20:03:53.918Z,4.87
2017-08-24T20:08:40.952Z,5.23
2017-08-24T20:13:27.571Z,5.47
2017-08-24T20:18:14.310Z,4.60
2017-08-24T20:23:01.072Z,3.47
2017-08-24T20:27:47.734Z,3.30
2017-08-24T20:32:34.510Z,3.23
2017-08-24T20:37:21.511Z,4.67
2017-08-24T20:42:08.287Z,2.80
2017-08-24T20:46:55.037Z,8.73
2017-08-24T20:51:41.775Z,4.83
2017-08-24T20:56:28.426Z,3.17
2017-08-24T21:01:15.089Z,5.90
2017-08-24T21:06:02.084Z,3.03
2017-08-24T21:10:48.717Z,4.80
2017-08-24T21:15:35.431Z,3.97
2017-08-24T21:20:22.077Z,3.77
2017-08-24T21:25:08.741Z,4.50
2017-08-24T21:29:55.849Z,4.40
2017-08-24T21:34:42.915Z,4.73
2017-08-24T21:39:29.572Z,3.30
2017-08-24T21:44:16.292Z,6.77
2017-08-24T21:49:02.965Z,5.70
2017-08-24T21:53:56.648Z,8.13
2017-08-24T21:58:43.334Z,3.47
2017-08-24T22:03:30.181Z,3.30
2017-08-24T22:08:17.162Z,3.90
2017-08-24T22:13:03.808Z,4.03
2017-08-24T22:17:50.549Z,5.63
2017-08-24T22:22:37.278Z,3.47
2017-08-24T22:27:23.924Z,3.23
2017-08-24T22:32:10.614Z,4.50
2017-08-24T22:36:57.264Z,4.60
2017-08-24T22:41:44.184Z,3.53
2017-08-24T22:46:30.836Z,3.17
2017-08-24T22:51:17.526Z,3.50
2017-08-24T22:56:10.209Z,2.97
2017-08-24T23:01:02.805Z,10.50
2017-08-24T23:05:49.636Z,5.10
2017-08-24T23:10:36.752Z,3.50
2017-08-24T23:15:23.373Z,7.03
2017-08-24T23:20:10.131Z,4.63
2017-08-24T23:24:56.832Z,4.63
2017-08-24T23:29:43.633Z,3.67
2017-08-24T23:34:30.304Z,3.33
2017-08-24T23:39:17.243Z,8.20
2017-08-24T23:44:03.885Z,5.17
2017-08-24T23:48:50.572Z,5.00
2017-08-24T23:53:37.218Z,5.13
2017-08-24T23:58:23.885Z,5.27
